createdAt,value
2022-11-17T00:00:42.479Z,67.64
2022-11-17T00:03:14.663Z,67.21
2022-11-17T00:05:42.585Z,67.61
2022-11-17T00:08:10.734Z,67.58
2022-11-17T00:10:40.087Z,67.98
2022-11-17T00:13:25.604Z,67.82
2022-11-17T00:15:53.614Z,67.67
2022-11-17T00:18:39.642Z,67.44
2022-11-17T00:21:21.463Z,67.38
2022-11-17T00:23:50.968Z,67.03
2022-11-17T00:26:23.138Z,67.50
2022-11-17T00:28:53.657Z,67.45
2022-11-17T00:31:39.916Z,67.39
2022-11-17T00:34:08.190Z,67.22
2022-11-17T00:36:39.181Z,67.57
2022-11-17T00:39:07.755Z,66.98
2022-11-17T00:41:37.755Z,67.35
2022-11-17T00:44:06.469Z,67.39
2022-11-17T00:46:35.080Z,67.59
2022-11-17T00:49:03.029Z,67.39
2022-11-17T00:51:31.540Z,67.33
2022-11-17T00:53:59.859Z,67.09
2022-11-17T00:56:28.242Z,67.32
2022-11-17T00:58:57.723Z,67.19
2022-11-17T01:01:26.160Z,66.72
2022-11-17T01:04:02.972Z,66.77
2022-11-17T01:06:33.515Z,66.34
2022-11-17T01:09:02.286Z,66.55
2022-11-17T01:11:30.381Z,66.55
2022-11-17T01:14:01.365Z,66.31
2022-11-17T01:16:31.027Z,66.41
2022-11-17T01:19:02.915Z,66.36
2022-11-17T01:21:32.760Z,66.15
2022-11-17T01:24:02.538Z,66.95
2022-11-17T01:26:33.175Z,66.22
2022-11-17T01:29:03.294Z,66.84
2022-11-17T01:31:33.079Z,66.94
2022-11-17T01:34:01.164Z,67.30
2022-11-17T01:36:30.677Z,67.64
2022-11-17T01:38:58.624Z,67.52
2022-11-17T01:41:28.779Z,67.21
2022-11-17T01:43:58.806Z,67.01
2022-11-17T01:46:34.333Z,67.30
2022-11-17T01:49:08.069Z,67.64
2022-11-17T01:51:39.696Z,67.50
2022-11-17T01:54:09.088Z,67.39
2022-11-17T01:56:41.718Z,66.76
2022-11-17T01:59:20.005Z,67.32
2022-11-17T02:01:56.759Z,67.19
2022-11-17T02:04:27.582Z,67.11
2022-11-17T02:07:01.740Z,66.96
2022-11-17T02:09:30.576Z,66.77
2022-11-17T02:11:59.894Z,66.19
2022-11-17T02:14:27.778Z,66.03
2022-11-17T02:16:59.943Z,66.17
2022-11-17T02:19:36.840Z,66.85
2022-11-17T02:22:27.490Z,67.60
2022-11-17T02:25:08.998Z,66.97
2022-11-17T02:27:56.479Z,66.84
2022-11-17T02:30:24.836Z,66.74
2022-11-17T02:33:02.761Z,67.10
2022-11-17T02:35:41.277Z,67.09
2022-11-17T02:38:24.756Z,66.46
2022-11-17T02:40:58.792Z,66.67
2022-11-17T02:43:52.836Z,66.67
2022-11-17T02:46:24.391Z,66.37
2022-11-17T02:48:58.497Z,66.97
2022-11-17T02:51:26.592Z,67.23
2022-11-17T02:53:57.390Z,67.75
2022-11-17T02:56:25.466Z,68.09
2022-11-17T02:59:01.395Z,68.35
2022-11-17T03:01:51.111Z,68.27
2022-11-17T03:04:30.921Z,68.85
2022-11-17T03:07:09.668Z,68.84
2022-11-17T03:09:47.256Z,68.60
2022-11-17T03:12:23.652Z,68.73
2022-11-17T03:15:05.514Z,69.29
2022-11-17T03:17:41.284Z,69.80
2022-11-17T03:20:15.312Z,69.28
2022-11-17T03:22:48.656Z,69.11
2022-11-17T03:25:21.920Z,69.59
2022-11-17T03:27:54.677Z,69.10
2022-11-17T03:30:25.696Z,69.04
2022-11-17T03:32:59.511Z,69.45
2022-11-17T03:35:30.898Z,69.22
2022-11-17T03:38:05.154Z,69.23
2022-11-17T03:40:37.059Z,69.27
2022-11-17T03:43:09.032Z,69.90
2022-11-17T03:45:44.008Z,69.79
2022-11-17T03:48:17.881Z,70.08
2022-11-17T03:50:52.351Z,69.72
2022-11-17T03:53:20.493Z,69.94
2022-11-17T03:55:58.910Z,69.80
2022-11-17T03:58:31.650Z,70.47
2022-11-17T04:01:03.996Z,70.87
2022-11-17T04:03:34.114Z,70.42
2022-11-17T04:06:02.994Z,70.58
2022-11-17T04:08:31.828Z,70.74
2022-11-17T04:11:17.181Z,70.55
2022-11-17T04:14:01.749Z,70.82
2022-11-17T04:16:31.018Z,70.84
2022-11-17T04:18:59.351Z,70.65
2022-11-17T04:21:27.559Z,71.03
2022-11-17T04:23:56.107Z,71.12
2022-11-17T04:26:41.798Z,71.02
2022-11-17T04:29:09.732Z,71.31
2022-11-17T04:31:38.997Z,71.23
2022-11-17T04:34:07.996Z,70.97
2022-11-17T04:36:39.598Z,71.34
2022-11-17T04:39:08.068Z,71.45
2022-11-17T04:41:53.939Z,70.93
2022-11-17T04:44:25.470Z,71.09
2022-11-17T04:46:55.862Z,70.63
2022-11-17T04:49:25.341Z,70.88
2022-11-17T04:51:54.736Z,70.61
2022-11-17T04:54:24.733Z,70.77
2022-11-17T04:56:53.435Z,71.08
2022-11-17T04:59:21.460Z,71.12
2022-11-17T05:01:49.732Z,71.25
2022-11-17T05:04:41.279Z,70.61
2022-11-17T05:07:09.649Z,70.83
2022-11-17T05:09:37.723Z,70.34
2022-11-17T05:12:23.628Z,70.33
2022-11-17T05:14:52.353Z,70.62
2022-11-17T05:17:19.408Z,70.60
2022-11-17T05:19:49.797Z,70.64
2022-11-17T05:22:37.075Z,71.20
2022-11-17T05:25:06.530Z,70.94
2022-11-17T05:27:35.263Z,70.82
2022-11-17T05:30:04.115Z,70.91
2022-11-17T05:32:32.665Z,70.76
2022-11-17T05:35:02.198Z,70.87
2022-11-17T05:37:30.473Z,70.82
2022-11-17T05:39:58.375Z,70.92
2022-11-17T05:42:26.248Z,70.92
2022-11-17T05:44:54.569Z,70.63
2022-11-17T05:47:22.515Z,70.93
2022-11-17T05:49:50.665Z,70.91
2022-11-17T05:52:20.077Z,70.77
2022-11-17T05:54:47.947Z,70.51
2022-11-17T05:57:22.291Z,70.80
2022-11-17T05:59:54.892Z,71.15
2022-11-17T06:02:28.510Z,71.00
2022-11-17T06:04:56.553Z,70.70
2022-11-17T06:07:26.538Z,70.76
2022-11-17T06:09:55.789Z,71.08
2022-11-17T06:12:23.725Z,71.40
2022-11-17T06:14:51.798Z,71.04
2022-11-17T06:17:24.172Z,71.03
2022-11-17T06:20:00.949Z,71.11
2022-11-17T06:22:30.937Z,71.04
2022-11-17T06:25:01.246Z,70.49
2022-11-17T06:27:31.978Z,71.26
2022-11-17T06:30:03.477Z,71.12
2022-11-17T06:32:34.119Z,71.08
2022-11-17T06:35:04.494Z,70.78
2022-11-17T06:37:33.930Z,70.79
2022-11-17T06:40:01.837Z,70.54
2022-11-17T06:42:47.069Z,70.93
2022-11-17T06:45:15.386Z,71.07
2022-11-17T06:47:43.404Z,71.17
2022-11-17T06:50:11.840Z,71.35
2022-11-17T06:52:41.264Z,71.39
2022-11-17T06:55:09.804Z,71.14
2022-11-17T06:57:37.741Z,70.74
2022-11-17T07:00:07.098Z,70.85
2022-11-17T07:02:36.682Z,70.50
2022-11-17T07:05:05.201Z,71.15
2022-11-17T07:07:33.344Z,71.20
2022-11-17T07:10:05.864Z,70.60
2022-11-17T07:12:34.559Z,70.19
2022-11-17T07:15:02.574Z,70.24
2022-11-17T07:17:31.736Z,70.06
2022-11-17T07:19:59.921Z,70.09
2022-11-17T07:22:28.044Z,70.04
2022-11-17T07:24:56.166Z,70.45
2022-11-17T07:27:25.666Z,70.30
2022-11-17T07:29:53.763Z,70.33
2022-11-17T07:32:22.434Z,70.78
2022-11-17T07:34:50.723Z,70.80
2022-11-17T07:37:18.809Z,70.59
2022-11-17T07:39:46.820Z,70.28
2022-11-17T07:42:14.765Z,70.27
2022-11-17T07:44:44.257Z,70.15
2022-11-17T07:47:12.184Z,70.22
2022-11-17T07:49:40.122Z,69.76
2022-11-17T07:52:08.104Z,70.35
2022-11-17T07:54:36.023Z,70.17
2022-11-17T07:57:04.179Z,70.77
2022-11-17T07:59:32.244Z,70.46
2022-11-17T08:02:01.690Z,70.96
2022-11-17T08:04:29.882Z,70.91
2022-11-17T08:06:58.008Z,71.09
2022-11-17T08:09:26.149Z,70.90
2022-11-17T08:11:54.015Z,70.75
2022-11-17T08:14:21.951Z,71.08
2022-11-17T08:16:50.266Z,71.14
2022-11-17T08:19:19.550Z,71.17
2022-11-17T08:21:47.646Z,71.49
2022-11-17T08:24:16.263Z,71.69
2022-11-17T08:26:44.331Z,71.41
2022-11-17T08:29:12.364Z,70.88
2022-11-17T08:31:45.809Z,70.61
2022-11-17T08:34:13.869Z,70.63
2022-11-17T08:36:43.206Z,70.85
2022-11-17T08:39:11.329Z,71.05
2022-11-17T08:41:39.330Z,70.69
2022-11-17T08:44:07.346Z,70.84
2022-11-17T08:46:35.377Z,70.27
2022-11-17T08:49:03.898Z,70.21
2022-11-17T08:51:31.940Z,70.19
2022-11-17T08:54:01.297Z,70.55
2022-11-17T08:56:29.313Z,70.49
2022-11-17T08:58:57.440Z,70.33
2022-11-17T09:01:25.538Z,70.17
2022-11-17T09:03:53.642Z,70.35
2022-11-17T09:06:21.571Z,70.86
2022-11-17T09:08:50.226Z,71.08
2022-11-17T09:11:20.791Z,71.38
2022-11-17T09:13:48.937Z,71.35
2022-11-17T09:16:17.752Z,71.48
2022-11-17T09:18:46.184Z,71.57
2022-11-17T09:21:17.157Z,71.23
2022-11-17T09:23:45.146Z,70.77
2022-11-17T09:26:15.084Z,71.09
2022-11-17T09:28:45.081Z,71.27
2022-11-17T09:31:15.086Z,71.49
2022-11-17T09:33:44.056Z,71.14
2022-11-17T09:36:13.799Z,71.62
2022-11-17T09:38:42.314Z,71.47
2022-11-17T09:41:35.687Z,71.90
2022-11-17T09:44:14.030Z,72.03
2022-11-17T09:46:55.845Z,71.68
2022-11-17T09:49:36.510Z,71.36
2022-11-17T09:52:12.499Z,70.66
2022-11-17T09:54:44.696Z,70.71
2022-11-17T09:57:26.512Z,70.41
2022-11-17T10:00:06.494Z,70.47
2022-11-17T10:02:35.293Z,70.92
2022-11-17T10:05:03.839Z,70.83
2022-11-17T10:07:35.081Z,70.75
2022-11-17T10:10:06.206Z,70.52
2022-11-17T10:12:40.523Z,70.89
2022-11-17T10:15:23.155Z,70.51
2022-11-17T10:17:51.830Z,70.46
2022-11-17T10:20:20.043Z,71.02
2022-11-17T10:22:49.009Z,70.77
2022-11-17T10:25:24.621Z,71.14
2022-11-17T10:27:55.001Z,70.93
2022-11-17T10:30:25.593Z,70.71
2022-11-17T10:32:55.774Z,70.82
2022-11-17T10:35:26.019Z,70.92
2022-11-17T10:37:56.436Z,71.03
2022-11-17T10:40:26.738Z,71.29
2022-11-17T10:43:05.699Z,71.01
2022-11-17T10:45:35.194Z,71.03
2022-11-17T10:48:11.390Z,71.13
2022-11-17T10:50:51.586Z,71.19
2022-11-17T10:53:25.963Z,70.81
2022-11-17T10:56:01.342Z,71.16
2022-11-17T10:58:31.347Z,70.83
2022-11-17T11:01:03.395Z,70.42
2022-11-17T11:03:33.430Z,70.87
2022-11-17T11:06:07.401Z,70.75
2022-11-17T11:08:52.379Z,71.11
2022-11-17T11:11:42.514Z,71.39
2022-11-17T11:14:19.372Z,71.46
2022-11-17T11:16:51.358Z,71.11
2022-11-17T11:19:21.136Z,71.22
2022-11-17T11:22:04.068Z,70.75
2022-11-17T11:24:43.226Z,70.66
2022-11-17T11:27:29.279Z,71.47
2022-11-17T11:30:03.605Z,71.23
2022-11-17T11:32:43.238Z,71.47
2022-11-17T11:35:43.642Z,71.58
2022-11-17T11:38:28.774Z,71.90
2022-11-17T11:41:09.893Z,71.98
2022-11-17T11:43:46.005Z,71.85
2022-11-17T11:46:18.892Z,71.68
2022-11-17T11:48:50.904Z,72.05
2022-11-17T11:51:22.208Z,72.19
2022-11-17T11:53:55.638Z,71.85
2022-11-17T11:56:28.692Z,72.25
2022-11-17T11:59:03.202Z,72.25
2022-11-17T12:01:38.591Z,72.08
2022-11-17T12:04:23.544Z,72.34
2022-11-17T12:07:01.177Z,72.15
2022-11-17T12:09:45.832Z,72.48
2022-11-17T12:12:16.862Z,71.99
2022-11-17T12:15:13.886Z,72.24
2022-11-17T12:17:59.152Z,72.02
2022-11-17T12:20:56.992Z,71.54
2022-11-17T12:23:55.544Z,72.02
2022-11-17T12:26:26.548Z,71.52
2022-11-17T12:29:27.284Z,71.84
2022-11-17T12:31:56.713Z,71.74
2022-11-17T12:34:27.955Z,72.17
2022-11-17T12:37:26.418Z,71.87
2022-11-17T12:40:00.647Z,72.25
2022-11-17T12:42:29.778Z,72.22
2022-11-17T12:45:19.503Z,72.42
2022-11-17T12:48:05.206Z,72.48
2022-11-17T12:50:51.562Z,72.52
2022-11-17T12:53:51.137Z,72.37
2022-11-17T12:56:38.630Z,72.28
2022-11-17T12:59:40.378Z,72.68
2022-11-17T13:02:23.328Z,72.73
2022-11-17T13:04:56.668Z,72.12
2022-11-17T13:07:26.467Z,72.19
2022-11-17T13:09:57.731Z,72.06
2022-11-17T13:12:27.188Z,72.07
2022-11-17T13:14:56.898Z,72.15
2022-11-17T13:17:28.857Z,71.95
2022-11-17T13:20:01.790Z,72.07
2022-11-17T13:22:30.342Z,71.97
2022-11-17T13:25:14.166Z,71.80
2022-11-17T13:27:50.700Z,72.02
2022-11-17T13:30:25.013Z,71.71
2022-11-17T13:32:53.586Z,72.51
2022-11-17T13:35:24.689Z,72.50
2022-11-17T13:38:07.592Z,72.42
2022-11-17T13:40:38.322Z,72.63
2022-11-17T13:43:08.563Z,72.35
2022-11-17T13:45:36.619Z,72.55
2022-11-17T13:48:04.842Z,72.82
2022-11-17T13:50:38.293Z,72.74
2022-11-17T13:53:22.712Z,72.61
2022-11-17T13:55:53.124Z,72.77
2022-11-17T13:58:26.922Z,72.67
2022-11-17T14:00:57.203Z,72.84
2022-11-17T14:03:33.687Z,73.31
2022-11-17T14:06:01.702Z,73.45
2022-11-17T14:08:32.758Z,72.88
2022-11-17T14:11:22.903Z,73.34
2022-11-17T14:13:53.196Z,73.54
2022-11-17T14:16:28.333Z,73.44
2022-11-17T14:19:02.984Z,73.48
2022-11-17T14:21:32.416Z,73.26
2022-11-17T14:24:07.721Z,73.04
2022-11-17T14:26:42.860Z,73.05
2022-11-17T14:29:12.692Z,73.45
2022-11-17T14:31:40.944Z,73.33
2022-11-17T14:34:09.876Z,72.87
2022-11-17T14:36:39.059Z,72.85
2022-11-17T14:39:14.911Z,73.05
2022-11-17T14:41:45.323Z,73.25
2022-11-17T14:44:13.675Z,73.03
2022-11-17T14:46:41.555Z,73.11
2022-11-17T14:49:10.411Z,72.87
2022-11-17T14:51:38.350Z,73.05
2022-11-17T14:54:06.743Z,72.79
2022-11-17T14:56:35.737Z,72.77
2022-11-17T14:59:05.008Z,73.13
2022-11-17T15:01:38.579Z,73.22
2022-11-17T15:04:27.593Z,72.81
2022-11-17T15:06:56.986Z,72.52
2022-11-17T15:09:25.100Z,72.57
2022-11-17T15:11:53.127Z,72.87
2022-11-17T15:14:22.906Z,73.11
2022-11-17T15:16:51.167Z,72.82
2022-11-17T15:19:19.509Z,72.88
2022-11-17T15:21:48.199Z,72.53
2022-11-17T15:24:16.599Z,72.65
2022-11-17T15:26:44.923Z,72.84
2022-11-17T15:29:15.291Z,72.79
2022-11-17T15:31:44.969Z,72.86
2022-11-17T15:34:18.763Z,72.96
2022-11-17T15:36:48.695Z,73.16
2022-11-17T15:39:17.699Z,72.97
2022-11-17T15:41:46.144Z,72.47
2022-11-17T15:44:14.654Z,72.49
2022-11-17T15:46:47.323Z,72.14
2022-11-17T15:49:15.940Z,72.26
2022-11-17T15:51:44.330Z,72.54
2022-11-17T15:54:16.647Z,72.43
2022-11-17T15:56:47.909Z,72.35
2022-11-17T15:59:16.308Z,72.61
2022-11-17T16:01:46.676Z,72.62
2022-11-17T16:04:16.299Z,72.07
2022-11-17T16:06:45.702Z,72.20
2022-11-17T16:09:15.102Z,72.59
2022-11-17T16:11:43.822Z,72.44
2022-11-17T16:14:12.027Z,72.62
2022-11-17T16:16:40.570Z,72.27
2022-11-17T16:19:10.498Z,72.43
2022-11-17T16:21:38.479Z,72.68
2022-11-17T16:24:08.137Z,73.02
2022-11-17T16:26:37.128Z,72.88
2022-11-17T16:29:06.704Z,73.00
2022-11-17T16:31:36.162Z,73.07
2022-11-17T16:34:06.278Z,72.98
2022-11-17T16:36:38.818Z,73.32
2022-11-17T16:39:08.406Z,72.85
2022-11-17T16:41:38.250Z,73.16
2022-11-17T16:44:09.144Z,73.02
2022-11-17T16:46:37.283Z,73.18
2022-11-17T16:49:07.892Z,73.45
2022-11-17T16:51:37.198Z,73.26
2022-11-17T16:54:07.033Z,73.64
2022-11-17T16:56:35.799Z,73.78
2022-11-17T16:59:04.381Z,73.81
2022-11-17T17:01:34.791Z,73.30
2022-11-17T17:04:06.354Z,73.40
2022-11-17T17:06:37.165Z,73.01
2022-11-17T17:09:08.534Z,73.25
2022-11-17T17:11:37.710Z,73.50
2022-11-17T17:14:08.372Z,73.56
2022-11-17T17:16:38.294Z,73.52
2022-11-17T17:19:08.373Z,73.04
2022-11-17T17:21:37.504Z,72.99
2022-11-17T17:24:07.569Z,73.51
2022-11-17T17:26:36.712Z,73.65
2022-11-17T17:29:05.933Z,73.52
2022-11-17T17:31:35.914Z,73.85
2022-11-17T17:34:05.027Z,74.51
2022-11-17T17:36:34.494Z,74.35
2022-11-17T17:39:03.858Z,74.21
2022-11-17T17:41:34.990Z,74.15
2022-11-17T17:44:05.125Z,74.55
2022-11-17T17:46:36.730Z,74.53
2022-11-17T17:49:05.883Z,74.59
2022-11-17T17:51:38.298Z,74.67
2022-11-17T17:54:07.703Z,74.37
2022-11-17T17:56:37.085Z,74.67
2022-11-17T17:59:05.111Z,74.57
2022-11-17T18:01:34.042Z,74.24
2022-11-17T18:04:04.870Z,74.38
2022-11-17T18:06:36.976Z,74.55
2022-11-17T18:09:05.500Z,74.21
2022-11-17T18:11:33.994Z,74.46
2022-11-17T18:14:04.246Z,74.27
2022-11-17T18:16:34.051Z,74.13
2022-11-17T18:19:03.672Z,74.29
2022-11-17T18:21:32.476Z,74.18
2022-11-17T18:24:03.293Z,73.93
2022-11-17T18:26:33.415Z,73.68
2022-11-17T18:29:04.993Z,73.99
2022-11-17T18:31:34.669Z,73.99
2022-11-17T18:34:05.430Z,74.06
2022-11-17T18:36:34.736Z,74.03
2022-11-17T18:39:03.652Z,74.25
2022-11-17T18:41:33.890Z,73.92
2022-11-17T18:44:04.102Z,73.98
2022-11-17T18:46:34.184Z,73.36
2022-11-17T18:49:02.281Z,73.78
2022-11-17T18:51:34.145Z,73.14
2022-11-17T18:54:03.639Z,73.21
2022-11-17T18:56:34.008Z,72.92
2022-11-17T18:59:06.419Z,72.96
2022-11-17T19:01:35.231Z,72.94
2022-11-17T19:04:03.296Z,73.07
2022-11-17T19:06:32.500Z,73.22
2022-11-17T19:09:02.642Z,73.06
2022-11-17T19:11:33.198Z,72.97
2022-11-17T19:14:05.219Z,72.55
2022-11-17T19:16:42.557Z,72.79
2022-11-17T19:19:13.642Z,72.69
2022-11-17T19:21:42.662Z,72.94
2022-11-17T19:24:11.126Z,72.79
2022-11-17T19:26:39.973Z,73.19
2022-11-17T19:29:17.252Z,73.15
2022-11-17T19:31:47.770Z,72.60
2022-11-17T19:34:17.016Z,72.48
2022-11-17T19:36:45.560Z,72.86
2022-11-17T19:39:17.153Z,73.33
2022-11-17T19:41:47.621Z,72.89
2022-11-17T19:44:17.568Z,73.13
2022-11-17T19:46:46.275Z,72.79
2022-11-17T19:49:14.824Z,73.19
2022-11-17T19:51:43.142Z,73.47
2022-11-17T19:54:13.416Z,72.97
2022-11-17T19:56:42.032Z,73.08
2022-11-17T19:59:15.714Z,72.60
2022-11-17T20:01:46.861Z,73.07
2022-11-17T20:04:15.185Z,73.05
2022-11-17T20:06:43.415Z,72.77
2022-11-17T20:09:13.755Z,72.60
2022-11-17T20:11:42.746Z,72.78
2022-11-17T20:14:10.929Z,72.91
2022-11-17T20:16:39.525Z,72.32
2022-11-17T20:19:10.085Z,72.62
2022-11-17T20:21:38.642Z,72.89
2022-11-17T20:24:07.560Z,72.75
2022-11-17T20:26:40.591Z,72.47
2022-11-17T20:29:09.684Z,72.38
2022-11-17T20:31:38.533Z,72.63
2022-11-17T20:34:06.941Z,72.45
2022-11-17T20:36:36.920Z,72.13
2022-11-17T20:39:06.689Z,72.69
2022-11-17T20:41:35.751Z,72.46
2022-11-17T20:44:04.217Z,72.24
2022-11-17T20:46:32.241Z,71.77
2022-11-17T20:49:00.482Z,72.24
2022-11-17T20:51:28.726Z,72.23
2022-11-17T20:53:58.330Z,72.38
2022-11-17T20:56:26.996Z,72.58
2022-11-17T20:58:55.512Z,72.44
2022-11-17T21:01:24.480Z,72.23
2022-11-17T21:03:53.287Z,72.49
2022-11-17T21:06:23.055Z,72.67
2022-11-17T21:08:54.716Z,72.48
2022-11-17T21:11:43.066Z,72.67
2022-11-17T21:14:13.606Z,72.12
2022-11-17T21:16:45.667Z,72.53
2022-11-17T21:19:14.533Z,72.06
2022-11-17T21:21:44.224Z,72.03
2022-11-17T21:24:12.765Z,71.73
2022-11-17T21:26:42.463Z,72.00
2022-11-17T21:29:11.407Z,72.06
2022-11-17T21:31:40.148Z,72.12
2022-11-17T21:34:08.652Z,71.94
2022-11-17T21:36:37.170Z,72.34
2022-11-17T21:39:05.714Z,72.53
2022-11-17T21:41:36.249Z,71.74
2022-11-17T21:44:05.940Z,72.06
2022-11-17T21:46:36.342Z,71.84
2022-11-17T21:49:05.486Z,71.91
2022-11-17T21:51:34.946Z,71.75
2022-11-17T21:54:05.263Z,71.52
2022-11-17T21:56:33.823Z,71.20
2022-11-17T21:59:03.861Z,71.60
2022-11-17T22:01:34.394Z,71.54
2022-11-17T22:04:02.846Z,71.62
2022-11-17T22:06:46.552Z,71.18
2022-11-17T22:09:14.806Z,71.25
2022-11-17T22:11:43.212Z,70.95
2022-11-17T22:14:13.342Z,71.14
2022-11-17T22:16:43.277Z,71.00
2022-11-17T22:19:12.850Z,71.20
2022-11-17T22:21:41.448Z,70.72
2022-11-17T22:24:12.594Z,71.05
2022-11-17T22:26:42.302Z,70.68
2022-11-17T22:29:14.347Z,70.67
2022-11-17T22:31:43.138Z,70.44
2022-11-17T22:34:11.132Z,70.45
2022-11-17T22:36:39.210Z,70.45
2022-11-17T22:39:07.496Z,70.66
2022-11-17T22:41:37.353Z,70.79
2022-11-17T22:44:06.332Z,70.25
2022-11-17T22:46:36.328Z,71.02
2022-11-17T22:49:04.469Z,71.09
2022-11-17T22:51:49.688Z,70.74
2022-11-17T22:54:17.616Z,70.98
2022-11-17T22:56:48.065Z,70.98
2022-11-17T22:59:16.535Z,70.75
2022-11-17T23:01:44.573Z,71.12
2022-11-17T23:04:12.894Z,70.80
2022-11-17T23:06:40.793Z,70.91
2022-11-17T23:09:08.842Z,70.95
2022-11-17T23:11:38.387Z,70.95
2022-11-17T23:14:11.600Z,70.75
2022-11-17T23:16:40.170Z,71.02
2022-11-17T23:19:09.743Z,70.57
2022-11-17T23:21:37.602Z,70.90
2022-11-17T23:24:05.967Z,70.73
2022-11-17T23:26:33.892Z,70.91
2022-11-17T23:29:01.897Z,71.02
2022-11-17T23:31:31.343Z,71.18
2022-11-17T23:33:59.372Z,70.76
2022-11-17T23:36:27.310Z,71.01
2022-11-17T23:38:56.558Z,70.48
2022-11-17T23:41:24.653Z,71.12
2022-11-17T23:43:54.747Z,71.40
2022-11-17T23:46:25.378Z,71.04
2022-11-17T23:48:56.251Z,70.74
2022-11-17T23:51:29.733Z,71.27
2022-11-17T23:54:01.107Z,70.82
2022-11-17T23:56:33.557Z,70.73
2022-11-17T23:59:01.886Z,70.90
